Time;durP1;ratioP1;P1;durP2;ratioP2;P2;SDS_P1;SDS_P2;PMS_P1;PMS_P2;Temp;Humidity;BMP_temperature;BMP_pressure;BME280_temperature;BME280_humidity;BME280_pressure;Samples;Min_cycle;Max_cycle;Signal;HPM_P1;HPM_P2
2022/11/09 00:00:01;;;;;;;2.17;1.20;;;14.70;99.90;;;;;;5114819;28;20695;-75
2022/11/09 00:02:27;;;;;;;4.70;1.50;;;14.70;99.90;;;;;;5114541;28;20168;-76
2022/11/09 00:04:52;;;;;;;2.00;1.37;;;14.70;99.90;;;;;;5114534;28;20177;-75
2022/11/09 00:07:18;;;;;;;2.93;1.60;;;14.80;99.90;;;;;;5114681;28;20569;-74
2022/11/09 00:09:43;;;;;;;2.93;1.30;;;14.80;99.90;;;;;;5114566;28;20181;-76
2022/11/09 00:12:09;;;;;;;2.57;1.50;;;14.80;99.90;;;;;;5114243;27;20169;-75
2022/11/09 00:14:35;;;;;;;1.73;1.20;;;14.80;99.90;;;;;;5114355;28;20184;-75
2022/11/09 00:17:01;;;;;;;3.43;1.67;;;14.70;99.90;;;;;;5114688;28;20214;-75
2022/11/09 00:19:26;;;;;;;3.80;1.27;;;14.70;99.90;;;;;;5113174;28;20407;-75
2022/11/09 00:21:52;;;;;;;1.53;1.23;;;14.80;99.90;;;;;;5114446;28;20181;-75
2022/11/09 00:24:17;;;;;;;2.90;1.33;;;14.80;99.90;;;;;;5113513;28;20256;-76
2022/11/09 00:26:43;;;;;;;2.00;1.50;;;14.70;99.90;;;;;;5114423;28;20200;-76
2022/11/09 00:29:09;;;;;;;3.83;1.40;;;14.70;99.90;;;;;;5114297;28;20165;-75
2022/11/09 00:31:34;;;;;;;2.13;1.63;;;14.70;99.90;;;;;;5114048;28;20215;-75
2022/11/09 00:34:00;;;;;;;1.60;1.10;;;14.70;99.90;;;;;;5114081;28;20173;-75
2022/11/09 00:36:27;;;;;;;1.80;1.20;;;14.60;99.90;;;;;;5113671;28;20446;-75
2022/11/09 00:38:56;;;;;;;4.07;1.47;;;14.60;99.90;;;;;;5113895;28;20165;-75
2022/11/09 00:41:23;;;;;;;1.50;1.13;;;14.60;99.90;;;;;;5113987;27;20423;-75
2022/11/09 00:43:49;;;;;;;1.70;1.50;;;14.60;99.90;;;;;;5114971;28;20414;-77
2022/11/09 00:46:16;;;;;;;1.40;0.90;;;14.50;99.90;;;;;;5113602;28;20445;-77
2022/11/09 00:48:41;;;;;;;1.70;1.13;;;14.50;99.90;;;;;;5115410;28;20394;-77
2022/11/09 00:51:08;;;;;;;2.60;1.20;;;14.50;99.90;;;;;;5113658;28;20434;-76
2022/11/09 00:53:34;;;;;;;1.30;1.00;;;14.50;99.90;;;;;;5113942;27;20237;-76
2022/11/09 00:56:01;;;;;;;1.80;1.03;;;14.50;99.90;;;;;;5113317;28;20740;-76
2022/11/09 00:58:29;;;;;;;1.47;0.87;;;14.50;99.90;;;;;;5112632;28;20215;-76
2022/11/09 01:00:56;;;;;;;1.80;1.30;;;14.50;99.90;;;;;;5113649;28;20415;-76
2022/11/09 01:03:23;;;;;;;1.47;0.77;;;14.50;99.90;;;;;;5114260;28;20391;-76
2022/11/09 01:05:49;;;;;;;1.80;1.10;;;14.60;99.90;;;;;;5114274;28;20430;-77
2022/11/09 01:08:15;;;;;;;3.80;1.40;;;14.60;99.90;;;;;;5113312;28;20464;-77
2022/11/09 01:10:43;;;;;;;1.83;1.07;;;14.60;99.90;;;;;;5114698;28;20434;-77
2022/11/09 01:13:10;;;;;;;1.47;0.90;;;14.60;99.90;;;;;;5114165;28;20402;-76
2022/11/09 01:15:47;;;;;;;2.30;1.20;;;14.70;99.90;;;;;;5113989;27;20406;-77
2022/11/09 01:18:14;;;;;;;2.27;1.30;;;14.70;99.90;;;;;;5114968;28;20450;-76
2022/11/09 01:20:41;;;;;;;1.80;0.93;;;14.70;99.90;;;;;;5114233;28;20439;-76
2022/11/09 01:23:09;;;;;;;2.40;1.10;;;14.60;99.90;;;;;;5122798;27;21076;-76
2022/11/09 01:25:35;;;;;;;2.60;1.57;;;14.60;99.90;;;;;;5112850;27;20418;-76
2022/11/09 01:28:02;;;;;;;2.13;1.10;;;14.60;99.90;;;;;;5113328;28;20921;-76
2022/11/09 01:30:28;;;;;;;1.30;0.93;;;14.60;99.90;;;;;;5113072;27;20564;-76
2022/11/09 01:32:53;;;;;;;1.37;1.07;;;14.60;99.90;;;;;;5111489;28;20421;-76
2022/11/09 01:35:19;;;;;;;2.53;1.23;;;14.50;99.90;;;;;;5112780;28;20402;-76
2022/11/09 01:37:45;;;;;;;1.80;0.90;;;14.50;99.90;;;;;;5112826;28;20204;-76
2022/11/09 01:40:11;;;;;;;4.60;0.90;;;14.50;99.90;;;;;;5112666;28;20203;-76
2022/11/09 01:42:37;;;;;;;1.90;1.10;;;14.50;99.90;;;;;;5111676;28;20251;-76
2022/11/09 01:45:24;;;;;;;2.23;1.20;;;14.40;99.90;;;;;;5112658;28;20394;-76
2022/11/09 01:48:18;;;;;;;1.40;0.80;;;14.40;99.90;;;;;;5112832;28;20425;-76
2022/11/09 01:50:57;;;;;;;3.37;1.13;;;14.40;99.90;;;;;;5110662;28;20438;-76
2022/11/09 01:53:26;;;;;;;2.23;1.17;;;14.30;99.90;;;;;;5112847;28;20463;-76
2022/11/09 01:55:54;;;;;;;1.97;0.90;;;14.40;99.90;;;;;;5112803;28;20491;-77
2022/11/09 01:58:26;;;;;;;1.70;1.00;;;14.40;99.90;;;;;;5113094;28;20667;-75
2022/11/09 02:00:55;;;;;;;1.73;1.10;;;14.40;99.90;;;;;;5112561;28;20430;-75
2022/11/09 02:03:28;;;;;;;1.80;1.50;;;14.40;99.90;;;;;;5111342;28;20407;-75
2022/11/09 02:05:53;;;;;;;2.57;1.17;;;14.40;99.90;;;;;;5112443;28;20429;-76
2022/11/09 02:08:23;;;;;;;1.77;1.10;;;14.30;99.90;;;;;;5112610;28;20422;-76
2022/11/09 02:11:07;;;;;;;3.07;1.43;;;14.40;99.90;;;;;;5112320;28;20607;-77
2022/11/09 02:13:34;;;;;;;3.10;1.73;;;14.30;99.90;;;;;;5113569;28;20415;-76
2022/11/09 02:16:00;;;;;;;8.93;1.33;;;14.20;99.90;;;;;;5111867;28;20394;-76
2022/11/09 02:18:26;;;;;;;1.60;1.00;;;14.20;99.90;;;;;;5112356;28;20446;-76
2022/11/09 02:20:54;;;;;;;1.57;1.13;;;14.20;99.90;;;;;;5112142;28;20189;-76
2022/11/09 02:23:20;;;;;;;1.63;1.03;;;14.20;99.90;;;;;;5110984;28;20465;-76
2022/11/09 02:25:51;;;;;;;3.40;0.90;;;14.20;99.90;;;;;;5112874;28;20403;-77
2022/11/09 02:28:17;;;;;;;3.33;1.23;;;14.20;99.90;;;;;;5113582;28;20899;-76
2022/11/09 02:30:48;;;;;;;3.63;1.07;;;14.20;99.90;;;;;;5113831;28;20461;-77
2022/11/09 02:33:13;;;;;;;4.90;1.00;;;14.10;99.90;;;;;;5112776;28;20222;-76
2022/11/09 02:35:39;;;;;;;3.37;1.50;;;14.10;99.90;;;;;;5129518;28;20795;-75
2022/11/09 02:38:09;;;;;;;2.60;1.13;;;14.10;99.90;;;;;;5133219;28;20280;-77
2022/11/09 02:40:37;;;;;;;2.60;1.23;;;14.10;99.90;;;;;;5128766;27;20272;-77
2022/11/09 02:43:05;;;;;;;5.83;1.73;;;14.10;99.90;;;;;;5112671;28;20954;-76
2022/11/09 02:45:31;;;;;;;5.77;1.20;;;14.10;99.90;;;;;;5113625;28;20403;-77
2022/11/09 02:47:56;;;;;;;1.80;1.20;;;14.10;99.90;;;;;;5114093;28;20421;-76
2022/11/09 02:50:22;;;;;;;1.60;1.23;;;14.10;99.90;;;;;;5113691;28;20187;-77
2022/11/09 02:52:48;;;;;;;4.43;1.20;;;14.00;99.90;;;;;;5113795;28;20161;-77
2022/11/09 02:55:13;;;;;;;2.03;0.97;;;14.00;99.90;;;;;;5112398;28;20215;-77
2022/11/09 02:57:39;;;;;;;5.47;1.93;;;14.10;99.90;;;;;;5112350;28;20626;-77
2022/11/09 03:00:06;;;;;;;4.33;2.80;;;14.10;99.90;;;;;;5113715;28;20181;-77
2022/11/09 03:02:31;;;;;;;1.83;1.20;;;14.10;99.90;;;;;;5113093;28;20176;-76
2022/11/09 03:04:57;;;;;;;2.50;1.03;;;14.10;99.90;;;;;;5111707;28;20391;-75
2022/11/09 03:07:22;;;;;;;2.53;1.00;;;14.20;99.90;;;;;;5110721;28;20165;-75
2022/11/09 03:09:48;;;;;;;2.40;1.20;;;14.20;99.90;;;;;;5110659;28;20173;-75
2022/11/09 03:12:28;;;;;;;2.23;0.97;;;14.20;99.90;;;;;;5110740;28;20646;-75
2022/11/09 03:15:03;;;;;;;2.30;1.43;;;14.20;99.90;;;;;;5111480;28;20517;-76
2022/11/09 03:17:31;;;;;;;1.47;1.03;;;14.30;99.90;;;;;;5111756;28;20456;-76
2022/11/09 03:19:56;;;;;;;2.43;0.90;;;14.30;99.90;;;;;;5113340;28;20486;-77
2022/11/09 03:22:22;;;;;;;3.83;1.00;;;14.40;99.90;;;;;;5112149;28;20485;-76
2022/11/09 03:24:48;;;;;;;1.20;0.90;;;14.30;99.90;;;;;;5111601;28;20644;-76
2022/11/09 03:27:13;;;;;;;5.53;1.13;;;14.40;99.90;;;;;;5113260;28;20169;-75
2022/11/09 03:29:39;;;;;;;3.10;1.77;;;14.40;99.90;;;;;;5115383;28;20250;-76
2022/11/09 03:32:05;;;;;;;2.50;0.83;;;14.40;99.90;;;;;;5115518;28;20168;-76
2022/11/09 03:34:31;;;;;;;4.83;1.30;;;14.30;99.90;;;;;;5115210;27;20169;-75
2022/11/09 03:36:56;;;;;;;2.87;1.50;;;14.40;99.90;;;;;;5116103;28;20445;-77
2022/11/09 03:39:22;;;;;;;5.00;1.10;;;14.40;99.90;;;;;;5114954;28;20165;-76
2022/11/09 03:41:48;;;;;;;1.53;1.00;;;14.40;99.90;;;;;;5114937;28;20192;-76
2022/11/09 03:44:13;;;;;;;4.70;1.10;;;14.40;99.90;;;;;;5113774;28;20791;-76
2022/11/09 03:46:39;;;;;;;2.30;1.13;;;14.40;99.90;;;;;;5125128;27;20176;-76
2022/11/09 03:49:04;;;;;;;2.53;1.00;;;14.50;99.90;;;;;;5116589;28;20172;-77
2022/11/09 03:51:30;;;;;;;2.70;1.20;;;14.50;99.90;;;;;;5115762;28;20704;-75
2022/11/09 03:53:55;;;;;;;2.67;1.07;;;14.50;99.90;;;;;;5115041;28;20560;-75
2022/11/09 03:56:21;;;;;;;3.10;1.00;;;14.50;99.90;;;;;;5114606;28;20529;-75
2022/11/09 03:58:47;;;;;;;1.87;0.87;;;14.50;99.90;;;;;;5114579;28;20251;-75
2022/11/09 04:01:12;;;;;;;2.33;1.00;;;14.50;99.90;;;;;;5115367;28;20732;-77
2022/11/09 04:03:38;;;;;;;3.47;2.07;;;14.50;99.90;;;;;;5116304;28;20161;-78
2022/11/09 04:06:04;;;;;;;3.00;1.13;;;14.60;99.90;;;;;;5114562;28;20169;-76
2022/11/09 04:08:29;;;;;;;1.23;0.90;;;14.50;99.90;;;;;;5114748;28;20161;-75
2022/11/09 04:10:55;;;;;;;5.13;1.30;;;14.50;99.90;;;;;;5114520;28;20790;-76
2022/11/09 04:13:21;;;;;;;2.43;1.13;;;14.60;99.90;;;;;;5114691;28;20176;-76
2022/11/09 04:15:46;;;;;;;3.30;1.30;;;14.60;99.90;;;;;;5114854;28;20614;-77
2022/11/09 04:18:14;;;;;;;3.17;1.60;;;14.60;99.90;;;;;;5115962;28;20193;-77
2022/11/09 04:20:40;;;;;;;4.07;2.00;;;14.60;99.90;;;;;;5114545;28;20185;-76
2022/11/09 04:23:08;;;;;;;1.90;1.10;;;14.60;99.90;;;;;;5114460;28;20429;-76
2022/11/09 04:25:35;;;;;;;1.90;1.37;;;14.70;99.90;;;;;;5114321;28;20182;-75
2022/11/09 04:28:03;;;;;;;3.00;1.47;;;14.60;99.90;;;;;;5114334;28;20413;-76
2022/11/09 04:30:30;;;;;;;2.87;1.30;;;14.60;99.90;;;;;;5114805;28;20414;-77
2022/11/09 04:32:56;;;;;;;1.67;0.93;;;14.60;99.90;;;;;;5115919;27;20402;-76
2022/11/09 04:35:22;;;;;;;2.57;1.27;;;14.60;99.90;;;;;;5113435;28;20442;-75
2022/11/09 04:37:59;;;;;;;4.20;1.30;;;14.60;99.90;;;;;;5112738;28;20450;-76
2022/11/09 04:40:27;;;;;;;1.37;0.70;;;14.50;99.90;;;;;;5114047;28;20450;-77
2022/11/09 04:42:52;;;;;;;2.07;1.23;;;14.50;99.90;;;;;;5114199;28;20404;-76
2022/11/09 04:45:19;;;;;;;3.30;1.20;;;14.50;99.90;;;;;;5114825;28;20399;-77
2022/11/09 04:47:45;;;;;;;3.83;2.83;;;14.50;99.90;;;;;;5115130;28;20161;-77
2022/11/09 04:50:11;;;;;;;4.03;1.60;;;14.50;99.90;;;;;;5115284;28;20803;-76
2022/11/09 04:52:36;;;;;;;1.63;1.23;;;14.50;99.90;;;;;;5120480;27;20243;-76
2022/11/09 04:55:03;;;;;;;2.17;0.90;;;14.60;99.90;;;;;;5132989;27;20175;-76
2022/11/09 04:57:28;;;;;;;4.90;1.80;;;14.60;99.90;;;;;;5134759;27;20196;-76
2022/11/09 04:59:54;;;;;;;2.70;1.17;;;14.50;99.90;;;;;;5115011;28;20521;-77
2022/11/09 05:02:19;;;;;;;3.27;1.10;;;14.50;99.90;;;;;;5114252;28;20172;-77
2022/11/09 05:04:45;;;;;;;2.60;1.10;;;14.60;99.90;;;;;;5113935;28;20162;-76
2022/11/09 05:07:10;;;;;;;1.53;0.97;;;14.60;99.90;;;;;;5113729;28;20570;-76
2022/11/09 05:09:36;;;;;;;2.13;1.03;;;14.60;99.90;;;;;;5113575;28;20187;-76
2022/11/09 05:12:01;;;;;;;1.70;1.10;;;14.60;99.90;;;;;;5113585;28;20545;-76
2022/11/09 05:14:27;;;;;;;4.50;1.20;;;14.60;99.90;;;;;;5113505;28;20184;-76
2022/11/09 05:16:52;;;;;;;4.30;1.10;;;14.60;99.90;;;;;;5113435;28;20192;-76
2022/11/09 05:19:18;;;;;;;2.70;1.30;;;14.50;99.90;;;;;;5114300;28;20596;-77
2022/11/09 05:21:43;;;;;;;4.17;1.50;;;14.50;99.90;;;;;;5113572;28;20185;-77
2022/11/09 05:24:09;;;;;;;5.03;1.10;;;14.50;99.90;;;;;;5114175;28;20187;-77
2022/11/09 05:26:38;;;;;;;4.20;1.13;;;14.50;99.90;;;;;;5112979;28;20184;-76
2022/11/09 05:29:09;;;;;;;5.70;1.37;;;14.50;99.90;;;;;;5113489;28;20180;-77
2022/11/09 05:31:35;;;;;;;3.80;1.10;;;14.50;99.90;;;;;;5113253;28;20488;-76
2022/11/09 05:34:01;;;;;;;2.13;0.97;;;14.50;99.90;;;;;;5113130;28;20426;-76
2022/11/09 05:36:28;;;;;;;1.63;0.80;;;14.50;99.90;;;;;;5112999;28;20766;-76
2022/11/09 05:38:54;;;;;;;2.00;1.10;;;14.50;99.90;;;;;;5113454;28;20395;-76
2022/11/09 05:41:20;;;;;;;2.47;1.30;;;14.50;99.90;;;;;;5112902;28;20798;-76
2022/11/09 05:43:45;;;;;;;2.83;1.20;;;14.50;99.90;;;;;;5111476;28;20176;-76
2022/11/09 05:46:13;;;;;;;2.10;1.00;;;14.50;99.90;;;;;;5113248;28;20395;-77
2022/11/09 05:48:39;;;;;;;4.03;1.10;;;14.50;99.90;;;;;;5113460;28;20664;-76
2022/11/09 05:51:07;;;;;;;4.73;2.17;;;14.40;99.90;;;;;;5112653;28;20430;-77
2022/11/09 05:53:33;;;;;;;8.00;3.00;;;14.50;99.90;;;;;;5112555;28;20456;-77
2022/11/09 05:56:11;;;;;;;4.23;1.03;;;14.40;99.90;;;;;;5093839;28;20399;-77
2022/11/09 05:58:37;;;;;;;2.17;1.00;;;14.40;99.90;;;;;;5092808;28;20453;-76
2022/11/09 06:01:09;;;;;;;6.23;1.80;;;14.50;99.90;;;;;;5111895;28;20513;-75
2022/11/09 06:03:35;;;;;;;3.03;0.90;;;14.40;99.90;;;;;;5112883;28;20411;-75
2022/11/09 06:06:03;;;;;;;4.40;1.60;;;14.30;99.90;;;;;;5110941;28;20778;-75
2022/11/09 06:08:29;;;;;;;2.47;0.93;;;14.30;99.90;;;;;;5112142;28;20164;-75
2022/11/09 06:10:59;;;;;;;2.60;1.30;;;14.10;99.90;;;;;;5112504;28;20431;-76
2022/11/09 06:13:25;;;;;;;1.70;1.20;;;14.00;99.90;;;;;;5112394;28;20168;-76
2022/11/09 06:15:55;;;;;;;3.17;1.30;;;14.00;99.90;;;;;;5112468;28;20405;-76
2022/11/09 06:18:22;;;;;;;2.83;1.13;;;14.00;99.90;;;;;;5112510;28;20196;-76
2022/11/09 06:20:51;;;;;;;1.90;1.37;;;13.90;99.90;;;;;;5112345;28;20483;-76
2022/11/09 06:23:16;;;;;;;1.57;0.80;;;13.80;99.90;;;;;;5111902;28;20442;-75
2022/11/09 06:25:42;;;;;;;2.13;1.23;;;13.70;99.90;;;;;;5111803;28;20435;-75
2022/11/09 06:28:07;;;;;;;1.63;1.23;;;13.60;99.90;;;;;;5113613;28;20230;-77
2022/11/09 06:30:32;;;;;;;8.03;1.00;;;13.50;99.90;;;;;;5114193;28;20189;-77
2022/11/09 06:33:02;;;;;;;2.70;0.80;;;13.40;99.90;;;;;;5112058;28;20181;-76
2022/11/09 06:35:28;;;;;;;1.97;1.03;;;13.30;99.90;;;;;;5112318;28;20601;-76
2022/11/09 06:37:58;;;;;;;3.27;1.30;;;13.20;99.90;;;;;;5112258;28;20503;-76
2022/11/09 06:40:24;;;;;;;1.50;0.77;;;13.20;99.90;;;;;;5112336;28;20502;-74
2022/11/09 06:42:49;;;;;;;2.80;1.20;;;13.10;99.90;;;;;;5110696;28;20510;-76
2022/11/09 06:45:15;;;;;;;2.20;1.33;;;13.10;99.90;;;;;;5112174;28;20161;-75
2022/11/09 06:47:41;;;;;;;1.70;1.07;;;13.00;99.90;;;;;;5112196;28;20221;-75
2022/11/09 06:50:08;;;;;;;1.53;0.90;;;12.90;99.90;;;;;;5112295;28;20193;-75
2022/11/09 06:52:34;;;;;;;1.77;1.10;;;12.90;99.90;;;;;;5113437;28;20368;-77
2022/11/09 06:54:59;;;;;;;2.20;1.00;;;12.90;99.90;;;;;;5113023;28;20820;-77
2022/11/09 06:57:28;;;;;;;3.37;1.20;;;12.90;99.90;;;;;;5113247;28;20196;-76
2022/11/09 06:59:53;;;;;;;1.70;0.90;;;12.90;99.90;;;;;;5113078;28;20267;-75
2022/11/09 07:02:19;;;;;;;2.60;1.20;;;12.80;99.90;;;;;;5113906;28;20497;-75
2022/11/09 07:04:45;;;;;;;2.20;1.20;;;12.80;99.90;;;;;;5115627;28;20180;-74
2022/11/09 07:07:10;;;;;;;1.97;1.10;;;12.90;99.90;;;;;;5115439;28;20234;-75
2022/11/09 07:09:36;;;;;;;7.40;1.40;;;13.00;99.90;;;;;;5116136;28;20176;-74
2022/11/09 07:12:02;;;;;;;2.10;1.30;;;13.00;99.90;;;;;;5118017;28;20542;-76
2022/11/09 07:14:47;;;;;;;4.90;1.33;;;12.90;99.90;;;;;;5118194;28;20173;-77
2022/11/09 07:17:12;;;;;;;1.43;0.97;;;13.00;99.90;;;;;;5126315;27;21034;-77
2022/11/09 07:19:38;;;;;;;2.30;1.23;;;13.00;99.90;;;;;;5117994;28;20445;-76
2022/11/09 07:22:03;;;;;;;3.80;1.57;;;13.00;99.90;;;;;;5116563;28;20268;-76
2022/11/09 07:24:29;;;;;;;4.00;1.37;;;13.00;99.90;;;;;;5116447;28;20253;-77
2022/11/09 07:26:54;;;;;;;1.40;1.20;;;13.00;99.90;;;;;;5116876;28;20181;-77
2022/11/09 07:29:20;;;;;;;1.70;1.03;;;13.00;99.90;;;;;;5117886;28;20180;-76
2022/11/09 07:31:46;;;;;;;3.03;1.20;;;13.10;99.90;;;;;;5117513;28;20234;-77
2022/11/09 07:34:11;;;;;;;2.10;1.73;;;13.10;99.90;;;;;;5117820;28;20188;-77
2022/11/09 07:36:37;;;;;;;2.20;1.27;;;13.10;99.90;;;;;;5117626;28;20197;-77
2022/11/09 07:39:03;;;;;;;1.97;1.10;;;13.20;99.90;;;;;;5114057;28;20193;-75
2022/11/09 07:41:28;;;;;;;5.00;1.63;;;13.10;99.90;;;;;;5114745;28;20285;-75
2022/11/09 07:43:54;;;;;;;1.40;1.20;;;13.20;99.90;;;;;;5115199;28;20405;-75
2022/11/09 07:46:19;;;;;;;1.60;0.97;;;13.20;99.90;;;;;;5114978;28;20169;-75
2022/11/09 07:48:45;;;;;;;1.93;1.00;;;13.20;99.90;;;;;;5114926;28;20189;-75
2022/11/09 07:51:10;;;;;;;7.77;1.73;;;13.30;99.90;;;;;;5114959;28;20196;-75
2022/11/09 07:53:37;;;;;;;3.40;1.37;;;13.40;99.90;;;;;;5113838;28;20169;-75
2022/11/09 07:56:03;;;;;;;2.10;1.27;;;13.40;99.90;;;;;;5114620;28;20176;-75
2022/11/09 07:58:29;;;;;;;1.80;1.20;;;13.50;99.90;;;;;;5114798;28;20474;-75
2022/11/09 08:00:55;;;;;;;2.93;1.73;;;13.60;99.90;;;;;;5113220;28;20434;-75
2022/11/09 08:03:21;;;;;;;2.73;1.40;;;13.90;99.90;;;;;;5114920;28;20426;-74
2022/11/09 08:05:48;;;;;;;2.60;1.10;;;14.10;99.90;;;;;;5114530;28;20442;-75
2022/11/09 08:08:15;;;;;;;1.67;1.10;;;14.50;99.90;;;;;;5114793;28;20407;-74
2022/11/09 08:10:41;;;;;;;1.80;1.40;;;15.10;99.90;;;;;;5114439;28;20466;-75
2022/11/09 08:13:12;;;;;;;3.13;1.63;;;15.80;99.90;;;;;;5114298;28;20407;-75
2022/11/09 08:15:38;;;;;;;1.67;0.90;;;16.60;99.90;;;;;;5114380;28;20403;-75
2022/11/09 08:18:11;;;;;;;1.93;0.90;;;16.80;99.90;;;;;;5114395;28;20954;-75
2022/11/09 08:20:36;;;;;;;3.57;1.00;;;17.10;99.90;;;;;;5114398;27;20422;-75
2022/11/09 08:23:03;;;;;;;2.10;1.10;;;17.50;99.90;;;;;;5114704;28;20484;-77
2022/11/09 08:25:28;;;;;;;2.73;1.37;;;17.90;99.90;;;;;;5115738;28;20218;-77
2022/11/09 08:27:57;;;;;;;19.60;12.83;;;18.20;99.90;;;;;;5128285;27;20751;-76
2022/11/09 08:30:23;;;;;;;2.33;1.30;;;18.80;99.90;;;;;;5095974;28;20193;-77
2022/11/09 08:32:49;;;;;;;2.97;1.30;;;19.40;99.90;;;;;;5095619;28;20834;-75
2022/11/09 08:35:17;;;;;;;2.10;1.10;;;20.20;99.90;;;;;;5111415;28;20450;-77
2022/11/09 08:37:44;;;;;;;2.13;1.50;;;20.80;99.90;;;;;;5115775;28;20189;-78
2022/11/09 08:40:10;;;;;;;1.60;1.43;;;20.90;99.90;;;;;;5114561;28;20514;-78
2022/11/09 08:42:36;;;;;;;1.70;1.37;;;21.40;99.90;;;;;;5114432;28;20450;-75
2022/11/09 08:45:02;;;;;;;1.67;1.23;;;21.10;99.90;;;;;;5113849;28;20194;-77
2022/11/09 08:47:28;;;;;;;1.50;1.10;;;21.20;99.90;;;;;;5115426;28;20407;-78
2022/11/09 08:49:54;;;;;;;6.30;1.30;;;21.00;99.90;;;;;;5115278;28;20527;-77
2022/11/09 08:52:19;;;;;;;3.83;1.50;;;20.80;99.90;;;;;;5115180;27;20418;-77
2022/11/09 08:54:45;;;;;;;2.03;1.53;;;20.90;99.90;;;;;;5113776;28;20233;-75
2022/11/09 08:57:10;;;;;;;1.87;1.17;;;20.60;99.90;;;;;;5114280;28;20204;-77
2022/11/09 08:59:36;;;;;;;2.40;1.10;;;20.70;99.90;;;;;;5115141;28;20161;-77
2022/11/09 09:02:02;;;;;;;1.57;1.47;;;21.30;99.90;;;;;;5114989;28;20256;-77
2022/11/09 09:04:28;;;;;;;2.73;1.50;;;21.70;99.90;;;;;;5114881;28;20169;-77
2022/11/09 09:06:54;;;;;;;4.27;1.60;;;22.00;99.90;;;;;;5113481;28;20252;-78
2022/11/09 09:09:19;;;;;;;1.57;1.20;;;22.50;99.90;;;;;;5115268;28;20446;-77
2022/11/09 09:11:45;;;;;;;2.50;1.63;;;22.40;99.90;;;;;;5113544;28;20218;-76
2022/11/09 09:14:11;;;;;;;2.07;1.57;;;22.50;99.90;;;;;;5114458;28;20169;-77
2022/11/09 09:16:36;;;;;;;3.90;1.80;;;22.20;99.90;;;;;;5114497;28;20173;-77
2022/11/09 09:19:02;;;;;;;1.90;1.70;;;22.00;99.90;;;;;;5114314;28;20634;-77
2022/11/09 09:21:28;;;;;;;1.87;1.67;;;21.50;99.90;;;;;;5114227;28;20192;-77
2022/11/09 09:23:53;;;;;;;5.40;1.40;;;21.00;99.90;;;;;;5113354;28;20423;-76
2022/11/09 09:26:19;;;;;;;3.30;1.73;;;20.50;99.90;;;;;;5111646;28;20173;-75
2022/11/09 09:28:44;;;;;;;2.80;2.17;;;20.00;99.90;;;;;;5113299;28;20177;-75
2022/11/09 09:31:10;;;;;;;1.50;1.10;;;19.50;99.90;;;;;;5113562;28;20207;-77
2022/11/09 09:33:36;;;;;;;2.67;1.40;;;19.20;99.90;;;;;;5112325;28;20172;-76
2022/11/09 09:36:01;;;;;;;3.43;1.20;;;19.00;99.90;;;;;;5115303;27;20523;-77
2022/11/09 09:38:28;;;;;;;6.00;1.30;;;18.80;99.90;;;;;;5113735;28;20193;-77
2022/11/09 09:40:58;;;;;;;1.73;0.97;;;18.60;99.90;;;;;;5113021;28;20196;-74
2022/11/09 09:43:40;;;;;;;2.00;1.30;;;18.40;99.90;;;;;;5114086;28;20405;-77
2022/11/09 09:46:14;;;;;;;1.77;1.67;;;18.30;99.90;;;;;;5112942;28;20931;-77
2022/11/09 09:48:47;;;;;;;3.47;1.23;;;18.20;99.90;;;;;;5113568;28;20448;-77
2022/11/09 09:51:16;;;;;;;1.93;1.40;;;18.40;99.90;;;;;;5113230;28;20844;-75
2022/11/09 09:53:46;;;;;;;2.53;1.07;;;18.70;99.90;;;;;;5112854;28;20402;-74
2022/11/09 09:56:22;;;;;;;3.50;1.33;;;18.80;99.90;;;;;;5112815;28;20411;-77
2022/11/09 09:59:01;;;;;;;1.30;1.20;;;18.80;99.90;;;;;;5113086;28;20459;-74
2022/11/09 10:01:35;;;;;;;1.67;1.10;;;18.80;99.90;;;;;;5112420;28;20434;-77
2022/11/09 10:04:01;;;;;;;2.00;1.17;;;18.90;99.90;;;;;;5113395;28;20936;-77
2022/11/09 10:07:14;;;;;;;1.90;1.30;;;18.80;99.90;;;;;;5112736;28;20427;-75
2022/11/09 10:10:11;;;;;;;2.50;1.20;;;18.60;99.90;;;;;;5029590;28;20221;-75
2022/11/09 10:13:04;;;;;;;2.53;1.30;;;18.50;99.90;;;;;;5110965;28;20950;-75
2022/11/09 10:15:53;;;;;;;2.03;1.30;;;18.20;99.90;;;;;;5112279;28;20416;-75
2022/11/09 10:18:52;;;;;;;2.13;1.27;;;18.30;99.90;;;;;;5112367;28;20510;-76
2022/11/09 10:21:27;;;;;;;1.67;1.10;;;18.30;99.90;;;;;;5112480;28;20418;-75
2022/11/09 10:24:04;;;;;;;1.40;1.30;;;18.40;99.90;;;;;;5112096;28;20512;-75
2022/11/09 10:26:43;;;;;;;2.37;1.53;;;18.60;99.90;;;;;;5112191;28;20726;-75
2022/11/09 10:29:19;;;;;;;1.73;1.20;;;18.80;99.90;;;;;;5113550;28;20418;-77
2022/11/09 10:31:46;;;;;;;2.90;1.30;;;19.00;99.90;;;;;;5112730;28;20418;-77
2022/11/09 10:34:18;;;;;;;1.77;1.60;;;19.10;99.90;;;;;;5112639;28;20410;-75
2022/11/09 10:36:52;;;;;;;2.87;1.80;;;19.00;99.90;;;;;;5114334;28;20453;-75
2022/11/09 10:39:22;;;;;;;10.60;2.93;;;19.00;99.90;;;;;;5111855;28;20415;-75
2022/11/09 10:41:48;;;;;;;1.80;1.60;;;19.10;99.90;;;;;;5116265;27;20962;-77
2022/11/09 10:44:16;;;;;;;3.40;1.80;;;19.70;99.90;;;;;;5121069;27;20426;-77
2022/11/09 10:47:06;;;;;;;1.80;1.70;;;20.20;99.90;;;;;;5116234;28;20222;-77
2022/11/09 10:49:33;;;;;;;3.00;1.97;;;20.20;99.80;;;;;;5117378;28;20394;-77
2022/11/09 10:51:59;;;;;;;2.77;1.93;;;20.20;99.80;;;;;;5116855;28;20926;-75
2022/11/09 10:54:26;;;;;;;2.30;1.30;;;20.40;99.50;;;;;;5115714;28;20415;-75
2022/11/09 10:57:14;;;;;;;2.40;1.83;;;20.90;98.60;;;;;;5115096;28;21037;-75
2022/11/09 10:59:48;;;;;;;2.63;2.20;;;21.60;95.20;;;;;;5116638;28;20466;-77
2022/11/09 11:02:23;;;;;;;3.50;2.70;;;22.30;92.90;;;;;;5116024;28;20493;-76
2022/11/09 11:04:49;;;;;;;2.70;2.43;;;22.90;90.00;;;;;;5115216;28;20406;-77
2022/11/09 11:07:19;;;;;;;8.10;2.83;;;23.10;82.90;;;;;;5115445;28;20459;-75
2022/11/09 11:09:44;;;;;;;3.20;2.90;;;23.60;78.00;;;;;;5115914;28;20243;-75
2022/11/09 11:12:19;;;;;;;4.67;2.77;;;23.70;75.00;;;;;;5116282;28;20458;-76
2022/11/09 11:14:45;;;;;;;2.97;2.77;;;23.00;72.20;;;;;;5116108;28;20172;-76
2022/11/09 11:17:33;;;;;;;2.97;2.67;;;22.80;74.00;;;;;;5116109;28;20453;-75
2022/11/09 11:20:23;;;;;;;3.93;2.60;;;22.80;74.10;;;;;;5115721;28;20448;-75
2022/11/09 11:22:49;;;;;;;5.43;2.77;;;23.30;74.30;;;;;;5115591;28;20442;-75
2022/11/09 11:25:23;;;;;;;2.80;2.60;;;23.30;71.80;;;;;;5115556;28;20437;-76
2022/11/09 11:27:59;;;;;;;3.93;2.80;;;23.00;69.60;;;;;;5116300;28;20163;-75
2022/11/09 11:30:30;;;;;;;2.83;2.53;;;22.90;71.60;;;;;;5115021;28;20422;-76
2022/11/09 11:32:56;;;;;;;2.97;2.63;;;22.90;73.20;;;;;;5115953;28;20414;-77
2022/11/09 11:35:37;;;;;;;2.73;2.50;;;22.30;71.30;;;;;;5115889;28;20395;-77
2022/11/09 11:38:29;;;;;;;3.33;2.50;;;22.20;73.40;;;;;;5116170;28;20450;-76
2022/11/09 11:41:12;;;;;;;2.63;2.43;;;22.00;71.80;;;;;;5073104;27;20434;-76
2022/11/09 11:43:38;;;;;;;3.87;2.70;;;21.20;71.60;;;;;;5115506;28;20391;-75
2022/11/09 11:46:26;;;;;;;2.73;2.50;;;21.00;74.90;;;;;;5114923;28;20463;-75
2022/11/09 11:49:19;;;;;;;2.50;2.30;;;21.10;75.90;;;;;;5113278;28;20561;-76
2022/11/09 11:52:08;;;;;;;3.13;2.03;;;21.00;75.90;;;;;;5115346;28;20437;-77
2022/11/09 11:54:52;;;;;;;3.07;2.33;;;20.70;76.60;;;;;;5123628;27;20848;-76
2022/11/09 11:57:27;;;;;;;10.80;2.80;;;20.50;78.10;;;;;;5114696;28;20446;-77
2022/11/09 11:59:58;;;;;;;2.60;2.40;;;20.70;79.70;;;;;;5116050;28;20394;-76
2022/11/09 12:02:38;;;;;;;2.40;2.30;;;20.70;80.00;;;;;;5115189;28;20760;-75
2022/11/09 12:05:22;;;;;;;3.40;2.50;;;20.60;77.40;;;;;;5114676;28;20768;-75
2022/11/09 12:08:18;;;;;;;3.43;2.40;;;21.30;79.00;;;;;;5114743;28;20406;-75
2022/11/09 12:10:57;;;;;;;4.10;2.40;;;21.70;75.70;;;;;;5106283;28;20442;-75
2022/11/09 12:13:41;;;;;;;4.60;2.33;;;21.30;75.60;;;;;;5114793;28;20395;-75
2022/11/09 12:16:11;;;;;;;2.70;2.30;;;21.30;76.70;;;;;;5114127;28;20410;-75
2022/11/09 12:19:05;;;;;;;7.27;4.40;;;21.50;76.40;;;;;;5115256;28;20484;-76
2022/11/09 12:21:37;;;;;;;4.03;2.60;;;21.50;74.60;;;;;;5115264;28;20421;-75
2022/11/09 12:24:16;;;;;;;2.47;2.27;;;20.90;75.70;;;;;;5113709;28;20457;-77
2022/11/09 12:26:53;;;;;;;3.20;2.70;;;20.00;76.30;;;;;;5115406;28;20411;-77
2022/11/09 12:29:37;;;;;;;3.07;2.50;;;19.80;79.80;;;;;;5114238;28;20405;-75
2022/11/09 12:32:28;;;;;;;2.30;2.20;;;19.50;78.50;;;;;;5113144;28;20441;-75
2022/11/09 12:35:18;;;;;;;8.13;3.07;;;19.60;77.60;;;;;;5114067;28;20391;-75
2022/11/09 12:37:57;;;;;;;2.50;2.20;;;19.20;79.20;;;;;;5103696;28;20850;-77
2022/11/09 12:40:31;;;;;;;2.30;2.20;;;19.10;80.40;;;;;;5094674;28;21249;-77
2022/11/09 12:43:03;;;;;;;4.33;2.73;;;19.00;79.80;;;;;;5114144;28;20414;-75
2022/11/09 12:45:34;;;;;;;3.33;2.70;;;18.70;81.90;;;;;;5113542;28;20443;-75
2022/11/09 12:48:24;;;;;;;3.57;2.60;;;18.80;81.80;;;;;;5114045;28;20402;-75
2022/11/09 12:50:51;;;;;;;3.67;2.47;;;18.80;82.10;;;;;;5113224;28;20503;-75
2022/11/09 12:53:18;;;;;;;3.83;2.80;;;19.10;81.80;;;;;;5113823;28;20398;-75
2022/11/09 12:55:56;;;;;;;2.30;2.10;;;19.10;81.00;;;;;;5113635;28;20410;-75